Winsted, Minnesota
Current Conditions -  °F | °C
As of 8:54 AM on Friday 19 Dec 2014 (Local Time) from KGYL Reporting Station
Haze Haze  
Wind Chill: 19°   Ceiling: 1000
Heat Index: 26°   Visibility: 4mi
Dew Point: 26°   Wind: 7mph
Humidity: 97%   Direction: 140°SE
Pressure: 30.21"   Gusts: NA
Location:  44.96°N, 94.05°W
Report Text: KGYL 191454Z AUTO 14006KT 4SM BR BKN010 OVC019 M03/M04 A3021 RMK AO2 T10321036
Loading
Personal Weather Stations






























Interactive Weather Map New forecast layout! Learn more

10-Day Weather Forecast

Advertisements
Track Severe Weather on mobile